Pleasant Lake, Wisconsin
Current Conditions -  °F | °C
As of 6:02 PM on Monday 22 Dec 2014 (Local Time) from KY50 Reporting Station
Freezing Rain Freezing Rain  
Wind Chill: 26°   Ceiling: 400
Heat Index: 34°   Visibility: 1.5mi
Dew Point: 34°   Wind: 10mph
Humidity: 100%   Direction: 80°E
Pressure: 29.7"   Gusts: NA
Location:  44.0358°N, 89.5222°W
Report Text: KY50 230002Z AUTO 08009KT 1 1/2SM -FZRA BR OVC004 01/01 A2970 RMK AO2 TSNO CIG 001V009 UPE2359FZRAB2359 P0000
Loading
Personal Weather Stations






























Interactive Weather Map New forecast layout! Learn more

10-Day Weather Forecast

Advertisements
Track Severe Weather on mobile